sensor_id;sensor_type;location;lat;lon;timestamp;pressure;altitude;pressure_sealevel;temperature;humidity
75447;BME280;64024;55.820;37.574;2023-03-23T00:00:06;98570.50;;;18.48;41.22
75447;BME280;64024;55.820;37.574;2023-03-23T00:02:32;98567.81;;;18.48;41.25
75447;BME280;64024;55.820;37.574;2023-03-23T00:05:05;98574.00;;;18.48;41.19
75447;BME280;64024;55.820;37.574;2023-03-23T00:07:34;98570.50;;;18.48;41.28
75447;BME280;64024;55.820;37.574;2023-03-23T00:10:00;98565.41;;;18.46;41.37
75447;BME280;64024;55.820;37.574;2023-03-23T00:12:30;98561.09;;;18.45;41.32
75447;BME280;64024;55.820;37.574;2023-03-23T00:15:06;98560.03;;;18.46;41.30
75447;BME280;64024;55.820;37.574;2023-03-23T00:17:32;98560.28;;;18.45;41.11
75447;BME280;64024;55.820;37.574;2023-03-23T00:19:59;98560.28;;;18.45;41.14
75447;BME280;64024;55.820;37.574;2023-03-23T00:22:27;98554.09;;;18.44;41.44
75447;BME280;64024;55.820;37.574;2023-03-23T00:24:54;98537.97;;;18.44;41.41
75447;BME280;64024;55.820;37.574;2023-03-23T00:27:22;98545.22;;;18.44;41.39
75447;BME280;64024;55.820;37.574;2023-03-23T00:29:51;98545.22;;;18.44;41.16
75447;BME280;64024;55.820;37.574;2023-03-23T00:32:22;98543.63;;;18.43;41.24
75447;BME280;64024;55.820;37.574;2023-03-23T00:34:57;98540.94;;;18.43;41.32
75447;BME280;64024;55.820;37.574;2023-03-23T00:37:26;98550.91;;;18.42;41.29
75447;BME280;64024;55.820;37.574;2023-03-23T00:39:52;98542.81;;;18.42;41.21
75447;BME280;64024;55.820;37.574;2023-03-23T00:42:23;98544.72;;;18.42;41.18
75447;BME280;64024;55.820;37.574;2023-03-23T00:44:48;98538.50;;;18.41;41.35
75447;BME280;64024;55.820;37.574;2023-03-23T00:47:15;98530.44;;;18.41;41.38
75447;BME280;64024;55.820;37.574;2023-03-23T00:49:42;98537.44;;;18.42;41.46
75447;BME280;64024;55.820;37.574;2023-03-23T00:52:09;98527.75;;;18.41;41.43
75447;BME280;64024;55.820;37.574;2023-03-23T00:54:36;98539.06;;;18.43;41.39
75447;BME280;64024;55.820;37.574;2023-03-23T00:57:03;98537.16;;;18.44;41.45
75447;BME280;64024;55.820;37.574;2023-03-23T00:59:29;98537.16;;;18.44;41.54
75447;BME280;64024;55.820;37.574;2023-03-23T01:01:54;98533.66;;;18.43;41.39
75447;BME280;64024;55.820;37.574;2023-03-23T01:04:20;98536.34;;;18.43;41.42
75447;BME280;64024;55.820;37.574;2023-03-23T01:06:48;98528.28;;;18.43;41.30
75447;BME280;64024;55.820;37.574;2023-03-23T01:09:16;98532.06;;;18.42;41.45
75447;BME280;64024;55.820;37.574;2023-03-23T01:11:43;98532.31;;;18.41;41.52
75447;BME280;64024;55.820;37.574;2023-03-23T01:14:09;98530.44;;;18.41;41.48
75447;BME280;64024;55.820;37.574;2023-03-23T01:16:35;98519.97;;;18.39;41.41
75447;BME280;64024;55.820;37.574;2023-03-23T01:19:01;98524.53;;;18.39;41.48
75447;BME280;64024;55.820;37.574;2023-03-23T01:21:26;98521.03;;;18.38;41.27
75447;BME280;64024;55.820;37.574;2023-03-23T01:23:52;98523.75;;;18.38;41.34
75447;BME280;64024;55.820;37.574;2023-03-23T01:26:21;98519.44;;;18.37;41.25
75447;BME280;64024;55.820;37.574;2023-03-23T01:28:47;98525.09;;;18.36;41.18
75447;BME280;64024;55.820;37.574;2023-03-23T01:31:15;98520.50;;;18.36;41.26
75447;BME280;64024;55.820;37.574;2023-03-23T01:33:42;98516.22;;;18.35;41.25
75447;BME280;64024;55.820;37.574;2023-03-23T01:36:13;98519.19;;;18.34;41.40
75447;BME280;64024;55.820;37.574;2023-03-23T01:38:39;98511.13;;;18.34;41.25
75447;BME280;64024;55.820;37.574;2023-03-23T01:41:06;98516.75;;;18.32;41.30
75447;BME280;64024;55.820;37.574;2023-03-23T01:43:31;98508.44;;;18.34;41.36
75447;BME280;64024;55.820;37.574;2023-03-23T01:45:57;98506.00;;;18.32;41.07
75447;BME280;64024;55.820;37.574;2023-03-23T01:48:25;98500.91;;;18.31;41.40
75447;BME280;64024;55.820;37.574;2023-03-23T01:50:59;98501.69;;;18.31;41.35
75447;BME280;64024;55.820;37.574;2023-03-23T01:53:40;98498.22;;;18.31;41.20
75447;BME280;64024;55.820;37.574;2023-03-23T01:56:08;98491.22;;;18.30;41.30
75447;BME280;64024;55.820;37.574;2023-03-23T01:58:38;98495.00;;;18.29;41.32
75447;BME280;64024;55.820;37.574;2023-03-23T02:01:07;98496.88;;;18.28;41.26
75447;BME280;64024;55.820;37.574;2023-03-23T02:03:38;98501.44;;;18.28;41.31
75447;BME280;64024;55.820;37.574;2023-03-23T02:06:05;98491.78;;;18.27;41.31
75447;BME280;64024;55.820;37.574;2023-03-23T02:08:31;98490.19;;;18.26;41.29
75447;BME280;64024;55.820;37.574;2023-03-23T02:10:59;98491.78;;;18.27;41.37
75447;BME280;64024;55.820;37.574;2023-03-23T02:13:25;98495.56;;;18.26;41.28
75447;BME280;64024;55.820;37.574;2023-03-23T02:18:49;98477.81;;;18.25;41.51
75447;BME280;64024;55.820;37.574;2023-03-23T02:26:52;98463.53;;;18.24;41.37
75447;BME280;64024;55.820;37.574;2023-03-23T02:32:39;98465.44;;;18.24;41.51
75447;BME280;64024;55.820;37.574;2023-03-23T02:35:18;98471.91;;;18.23;41.38
75447;BME280;64024;55.820;37.574;2023-03-23T02:37:50;98472.97;;;18.22;41.52
75447;BME280;64024;55.820;37.574;2023-03-23T02:40:42;98469.50;;;18.21;41.33
75447;BME280;64024;55.820;37.574;2023-03-23T02:43:13;98468.94;;;18.19;41.45
75447;BME280;64024;55.820;37.574;2023-03-23T02:45:42;98463.06;;;18.17;41.71
75447;BME280;64024;55.820;37.574;2023-03-23T02:48:10;98470.31;;;18.17;41.42
75447;BME280;64024;55.820;37.574;2023-03-23T02:50:40;98468.69;;;18.16;41.59
75447;BME280;64024;55.820;37.574;2023-03-23T02:53:10;98469.78;;;18.14;41.64
75447;BME280;64024;55.820;37.574;2023-03-23T02:55:38;98468.97;;;18.14;41.58
75447;BME280;64024;55.820;37.574;2023-03-23T02:58:08;98473.56;;;18.13;41.47
75447;BME280;64024;55.820;37.574;2023-03-23T03:00:33;98476.25;;;18.13;41.66
75447;BME280;64024;55.820;37.574;2023-03-23T03:03:00;98471.97;;;18.12;41.60
75447;BME280;64024;55.820;37.574;2023-03-23T03:08:52;98476.75;;;18.16;41.59
75447;BME280;64024;55.820;37.574;2023-03-23T03:11:20;98470.06;;;18.13;41.51
75447;BME280;64024;55.820;37.574;2023-03-23T03:19:08;98470.06;;;18.13;41.78
75447;BME280;64024;55.820;37.574;2023-03-23T03:21:40;98462.25;;;18.11;41.75
75447;BME280;64024;55.820;37.574;2023-03-23T03:24:08;98459.56;;;18.11;41.67
75447;BME280;64024;55.820;37.574;2023-03-23T03:26:38;98461.47;;;18.11;42.03
75447;BME280;64024;55.820;37.574;2023-03-23T03:29:05;98457.97;;;18.10;42.05
75447;BME280;64024;55.820;37.574;2023-03-23T03:31:38;98455.28;;;18.10;42.67
75447;BME280;64024;55.820;37.574;2023-03-23T03:34:05;98451.50;;;18.11;42.33
75447;BME280;64024;55.820;37.574;2023-03-23T03:36:33;98452.59;;;18.10;42.53
75447;BME280;64024;55.820;37.574;2023-03-23T03:39:05;98451.50;;;18.11;42.49
75447;BME280;64024;55.820;37.574;2023-03-23T03:41:33;98452.31;;;18.12;42.46
75447;BME280;64024;55.820;37.574;2023-03-23T03:43:59;98450.66;;;18.21;42.56
75447;BME280;64024;55.820;37.574;2023-03-23T03:46:25;98443.94;;;18.19;42.47
75447;BME280;64024;55.820;37.574;2023-03-23T03:48:53;98447.97;;;18.16;42.40
75447;BME280;64024;55.820;37.574;2023-03-23T03:51:18;98445.28;;;18.16;42.50
75447;BME280;64024;55.820;37.574;2023-03-23T03:53:44;98441.25;;;18.19;42.45
75447;BME280;64024;55.820;37.574;2023-03-23T03:56:10;98443.66;;;18.20;42.54
75447;BME280;64024;55.820;37.574;2023-03-23T03:58:36;98443.09;;;18.23;42.50
75447;BME280;64024;55.820;37.574;2023-03-23T04:01:03;98442.56;;;18.26;42.58
75447;BME280;64024;55.820;37.574;2023-03-23T04:03:29;98436.63;;;18.29;42.56
75447;BME280;64024;55.820;37.574;2023-03-23T04:05:54;98437.69;;;18.33;42.44
75447;BME280;64024;55.820;37.574;2023-03-23T04:08:23;98439.81;;;18.36;42.52
75447;BME280;64024;55.820;37.574;2023-03-23T04:10:49;98441.94;;;18.39;42.54
75447;BME280;64024;55.820;37.574;2023-03-23T04:13:15;98440.31;;;18.44;42.56
75447;BME280;64024;55.820;37.574;2023-03-23T04:15:41;98434.09;;;18.48;42.29
75447;BME280;64024;55.820;37.574;2023-03-23T04:18:07;98432.97;;;18.54;42.38
75447;BME280;64024;55.820;37.574;2023-03-23T04:20:33;98439.41;;;18.58;42.16
75447;BME280;64024;55.820;37.574;2023-03-23T04:23:00;98438.03;;;18.61;42.20
75447;BME280;64024;55.820;37.574;2023-03-23T04:25:27;98429.13;;;18.66;41.82
75447;BME280;64024;55.820;37.574;2023-03-23T04:27:53;98440.13;;;18.69;42.04
75447;BME280;64024;55.820;37.574;2023-03-23T04:30:24;98433.94;;;18.74;41.76
75447;BME280;64024;55.820;37.574;2023-03-23T04:32:52;98432.03;;;18.79;41.94
75447;BME280;64024;55.820;37.574;2023-03-23T04:35:24;98430.38;;;18.83;42.03
75447;BME280;64024;55.820;37.574;2023-03-23T04:37:52;98429.53;;;18.88;41.91
75447;BME280;64024;55.820;37.574;2023-03-23T04:40:19;98422.50;;;18.92;41.74
75447;BME280;64024;55.820;37.574;2023-03-23T04:42:45;98431.63;;;18.96;41.83
75447;BME280;64024;55.820;37.574;2023-03-23T04:45:13;98435.34;;;19.00;41.72
75447;BME280;64024;55.820;37.574;2023-03-23T04:47:40;98442.56;;;19.05;41.67
75447;BME280;64024;55.820;37.574;2023-03-23T04:50:11;98443.88;;;19.07;41.77
75447;BME280;64024;55.820;37.574;2023-03-23T04:52:40;98450.03;;;19.13;41.68
75447;BME280;64024;55.820;37.574;2023-03-23T04:55:11;98436.81;;;19.17;41.62
75447;BME280;64024;55.820;37.574;2023-03-23T04:57:37;98437.06;;;19.20;41.45
75447;BME280;64024;55.820;37.574;2023-03-23T05:00:04;98432.41;;;19.26;41.41
75447;BME280;64024;55.820;37.574;2023-03-23T05:02:35;98436.94;;;19.30;41.55
75447;BME280;64024;55.820;37.574;2023-03-23T05:05:01;98427.09;;;19.45;41.32
75447;BME280;64024;55.820;37.574;2023-03-23T05:07:26;98440.31;;;19.46;41.31
75447;BME280;64024;55.820;37.574;2023-03-23T05:09:52;98449.41;;;19.50;41.20
75447;BME280;64024;55.820;37.574;2023-03-23T05:12:18;98445.88;;;19.55;41.19
75447;BME280;64024;55.820;37.574;2023-03-23T05:14:43;98440.41;;;19.60;40.90
75447;BME280;64024;55.820;37.574;2023-03-23T05:17:09;98443.88;;;19.66;41.02
75447;BME280;64024;55.820;37.574;2023-03-23T05:19:35;98439.25;;;19.71;41.04
75447;BME280;64024;55.820;37.574;2023-03-23T05:22:01;98444.28;;;19.78;40.81
75447;BME280;64024;55.820;37.574;2023-03-23T05:24:31;98449.03;;;19.86;40.78
75447;BME280;64024;55.820;37.574;2023-03-23T05:26:58;98441.41;;;19.93;40.74
75447;BME280;64024;55.820;37.574;2023-03-23T05:29:24;98448.06;;;20.01;40.76
75447;BME280;64024;55.820;37.574;2023-03-23T05:31:51;98455.81;;;20.07;40.75
75447;BME280;64024;55.820;37.574;2023-03-23T05:34:19;98451.63;;;20.15;40.66
75447;BME280;64024;55.820;37.574;2023-03-23T05:36:45;98453.19;;;20.21;40.50
75447;BME280;64024;55.820;37.574;2023-03-23T05:39:11;98447.41;;;20.28;40.38
75447;BME280;64024;55.820;37.574;2023-03-23T05:41:38;98445.75;;;20.32;40.32
75447;BME280;64024;55.820;37.574;2023-03-23T05:44:04;98446.19;;;20.39;40.32
75447;BME280;64024;55.820;37.574;2023-03-23T05:46:30;98448.00;;;20.44;40.21
75447;BME280;64024;55.820;37.574;2023-03-23T05:48:56;98447.16;;;20.48;40.14
75447;BME280;64024;55.820;37.574;2023-03-23T05:51:21;98444.19;;;20.50;40.01
75447;BME280;64024;55.820;37.574;2023-03-23T05:53:47;98445.78;;;20.51;40.03
75447;BME280;64024;55.820;37.574;2023-03-23T05:56:13;98442.00;;;20.52;40.06
75447;BME280;64024;55.820;37.574;2023-03-23T05:58:39;98438.22;;;20.53;40.06
75447;BME280;64024;55.820;37.574;2023-03-23T06:01:08;98443.88;;;20.51;40.03
75447;BME280;64024;55.820;37.574;2023-03-23T06:03:34;98440.38;;;20.51;40.37
75447;BME280;64024;55.820;37.574;2023-03-23T06:06:03;98450.38;;;20.50;40.22
75447;BME280;64024;55.820;37.574;2023-03-23T06:08:29;98443.41;;;20.49;40.16
75447;BME280;64024;55.820;37.574;2023-03-23T06:10:55;98443.09;;;20.51;40.19
75447;BME280;64024;55.820;37.574;2023-03-23T06:13:22;98441.50;;;20.50;40.08
75447;BME280;64024;55.820;37.574;2023-03-23T06:15:49;98439.59;;;20.50;40.04
75447;BME280;64024;55.820;37.574;2023-03-23T06:18:15;98443.09;;;20.51;40.22
75447;BME280;64024;55.820;37.574;2023-03-23T06:20:40;98440.38;;;20.51;40.32
75447;BME280;64024;55.820;37.574;2023-03-23T06:23:08;98447.38;;;20.52;40.26
75447;BME280;64024;55.820;37.574;2023-03-23T06:25:34;98446.59;;;20.51;40.13
75447;BME280;64024;55.820;37.574;2023-03-23T06:28:00;98442.00;;;20.52;40.32
75447;BME280;64024;55.820;37.574;2023-03-23T06:30:26;98439.00;;;20.53;40.23
75447;BME280;64024;55.820;37.574;2023-03-23T06:33:11;98437.91;;;20.54;40.24
75447;BME280;64024;55.820;37.574;2023-03-23T06:35:37;98438.72;;;20.55;40.28
75447;BME280;64024;55.820;37.574;2023-03-23T06:38:02;98439.50;;;20.55;40.42
75447;BME280;64024;55.820;37.574;2023-03-23T06:40:28;98439.50;;;20.55;40.12
75447;BME280;64024;55.820;37.574;2023-03-23T06:42:56;98433.31;;;20.55;40.54
75447;BME280;64024;55.820;37.574;2023-03-23T06:45:22;98438.41;;;20.56;40.45
75447;BME280;64024;55.820;37.574;2023-03-23T06:47:47;98427.63;;;20.56;40.51
75447;BME280;64024;55.820;37.574;2023-03-23T06:50:15;98437.34;;;20.57;40.47
75447;BME280;64024;55.820;37.574;2023-03-23T06:52:45;98431.94;;;20.57;40.52
75447;BME280;64024;55.820;37.574;2023-03-23T06:55:11;98435.13;;;20.59;40.58
75447;BME280;64024;55.820;37.574;2023-03-23T06:57:37;98424.34;;;20.59;40.58
75447;BME280;64024;55.820;37.574;2023-03-23T07:00:03;98419.72;;;20.60;40.82
75447;BME280;64024;55.820;37.574;2023-03-23T07:02:41;98428.63;;;20.60;40.69
75447;BME280;64024;55.820;37.574;2023-03-23T07:05:08;98433.75;;;20.62;40.68
75447;BME280;64024;55.820;37.574;2023-03-23T07:07:39;98428.06;;;20.64;40.61
75447;BME280;64024;55.820;37.574;2023-03-23T07:10:07;98425.03;;;20.65;40.68
75447;BME280;64024;55.820;37.574;2023-03-23T07:12:34;98422.88;;;20.67;40.68
75447;BME280;64024;55.820;37.574;2023-03-23T07:15:02;98423.66;;;20.68;40.88
75447;BME280;64024;55.820;37.574;2023-03-23T07:17:28;98421.75;;;20.68;40.68
75447;BME280;64024;55.820;37.574;2023-03-23T07:19:53;98413.38;;;20.70;40.66
75447;BME280;64024;55.820;37.574;2023-03-23T07:22:19;98419.59;;;20.70;40.74
75447;BME280;64024;55.820;37.574;2023-03-23T07:24:45;98418.50;;;20.71;40.91
75447;BME280;64024;55.820;37.574;2023-03-23T07:27:11;98415.47;;;20.73;40.90
75447;BME280;64024;55.820;37.574;2023-03-23T07:29:36;98415.47;;;20.73;40.80
75447;BME280;64024;55.820;37.574;2023-03-23T07:32:04;98420.59;;;20.74;40.94
75447;BME280;64024;55.820;37.574;2023-03-23T07:34:31;98420.59;;;20.74;40.92
75447;BME280;64024;55.820;37.574;2023-03-23T07:36:57;98419.50;;;20.75;40.94
75447;BME280;64024;55.820;37.574;2023-03-23T07:39:23;98421.09;;;20.76;40.93
75447;BME280;64024;55.820;37.574;2023-03-23T07:41:49;98411.09;;;20.77;40.83
75447;BME280;64024;55.820;37.574;2023-03-23T07:44:15;98410.28;;;20.76;40.98
75447;BME280;64024;55.820;37.574;2023-03-23T07:46:41;98407.31;;;20.78;40.98
75447;BME280;64024;55.820;37.574;2023-03-23T07:49:07;98401.63;;;20.79;40.99
75447;BME280;64024;55.820;37.574;2023-03-23T07:51:33;98388.91;;;20.80;41.11
75447;BME280;64024;55.820;37.574;2023-03-23T07:54:00;98379.69;;;20.81;41.22
75447;BME280;64024;55.820;37.574;2023-03-23T07:56:28;98384.03;;;20.82;41.28
75447;BME280;64024;55.820;37.574;2023-03-23T07:58:54;98391.03;;;20.83;41.09
75447;BME280;64024;55.820;37.574;2023-03-23T08:01:20;98387.22;;;20.84;41.05
75447;BME280;64024;55.820;37.574;2023-03-23T08:03:45;98387.22;;;20.84;41.10
75447;BME280;64024;55.820;37.574;2023-03-23T08:06:12;98386.13;;;20.85;41.29
75447;BME280;64024;55.820;37.574;2023-03-23T08:08:37;98385.03;;;20.86;41.20
75447;BME280;64024;55.820;37.574;2023-03-23T08:11:06;98389.63;;;20.85;41.18
75447;BME280;64024;55.820;37.574;2023-03-23T08:13:32;98382.34;;;20.86;41.17
75447;BME280;64024;55.820;37.574;2023-03-23T08:16:01;98399.34;;;20.87;41.03
75447;BME280;64024;55.820;37.574;2023-03-23T08:18:30;98386.63;;;20.87;41.16
75447;BME280;64024;55.820;37.574;2023-03-23T08:20:57;98378.53;;;20.87;41.08
75447;BME280;64024;55.820;37.574;2023-03-23T08:23:22;98387.13;;;20.89;41.14
75447;BME280;64024;55.820;37.574;2023-03-23T08:25:48;98378.22;;;20.89;40.95
75447;BME280;64024;55.820;37.574;2023-03-23T08:28:14;98376.31;;;20.89;40.95
75447;BME280;64024;55.820;37.574;2023-03-23T08:30:41;98368.22;;;20.89;41.09
75447;BME280;64024;55.820;37.574;2023-03-23T08:33:07;98369.84;;;20.90;41.02
75447;BME280;64024;55.820;37.574;2023-03-23T08:35:35;98364.94;;;20.92;41.04
75447;BME280;64024;55.820;37.574;2023-03-23T08:38:02;98352.53;;;20.91;41.02
75447;BME280;64024;55.820;37.574;2023-03-23T08:40:28;98346.03;;;20.92;40.90
75447;BME280;64024;55.820;37.574;2023-03-23T08:42:54;98350.31;;;20.93;40.96
75447;BME280;64024;55.820;37.574;2023-03-23T08:45:23;98350.84;;;20.95;40.99
75447;BME280;64024;55.820;37.574;2023-03-23T08:47:49;98340.53;;;20.97;41.05
75447;BME280;64024;55.820;37.574;2023-03-23T08:50:25;98329.44;;;20.99;41.10
75447;BME280;64024;55.820;37.574;2023-03-23T08:52:52;98328.63;;;20.98;41.03
75447;BME280;64024;55.820;37.574;2023-03-23T08:55:19;98326.75;;;20.99;41.27
75447;BME280;64024;55.820;37.574;2023-03-23T08:57:44;98322.94;;;21.00;41.16
75447;BME280;64024;55.820;37.574;2023-03-23T09:00:13;98315.63;;;21.00;41.33
75447;BME280;64024;55.820;37.574;2023-03-23T09:02:43;98315.31;;;21.02;41.40
75447;BME280;64024;55.820;37.574;2023-03-23T09:05:10;98309.91;;;21.02;40.93
75447;BME280;64024;55.820;37.574;2023-03-23T09:07:41;98311.53;;;21.03;41.36
75447;BME280;64024;55.820;37.574;2023-03-23T09:10:08;98303.13;;;21.04;41.52
75447;BME280;64024;55.820;37.574;2023-03-23T09:12:35;98302.03;;;21.05;41.46
75447;BME280;64024;55.820;37.574;2023-03-23T09:15:05;98299.03;;;21.07;41.60
75447;BME280;64024;55.820;37.574;2023-03-23T09:17:39;98305.72;;;21.09;41.56
75447;BME280;64024;55.820;37.574;2023-03-23T09:20:06;98297.34;;;21.11;41.72
75447;BME280;64024;55.820;37.574;2023-03-23T09:22:44;98304.53;;;21.16;41.96
75447;BME280;64024;55.820;37.574;2023-03-23T09:25:11;98297.22;;;21.16;41.84
75447;BME280;64024;55.820;37.574;2023-03-23T09:27:38;98298.50;;;21.19;41.79
75447;BME280;64024;55.820;37.574;2023-03-23T09:30:08;98295.53;;;21.20;41.95
75447;BME280;64024;55.820;37.574;2023-03-23T09:32:36;98289.81;;;21.22;41.99
75447;BME280;64024;55.820;37.574;2023-03-23T09:35:04;98283.31;;;21.23;41.90
75447;BME280;64024;55.820;37.574;2023-03-23T09:37:32;98271.41;;;21.24;41.92
75447;BME280;64024;55.820;37.574;2023-03-23T09:40:00;98273.00;;;21.25;42.03
75447;BME280;64024;55.820;37.574;2023-03-23T09:45:09;98262.41;;;21.28;42.06
75447;BME280;64024;55.820;37.574;2023-03-23T09:50:12;98261.28;;;21.29;41.93
75447;BME280;64024;55.820;37.574;2023-03-23T09:52:58;98258.28;;;21.31;41.98
75447;BME280;64024;55.820;37.574;2023-03-23T09:55:24;98253.19;;;21.29;41.78
75447;BME280;64024;55.820;37.574;2023-03-23T09:58:17;98245.56;;;21.31;41.67
75447;BME280;64024;55.820;37.574;2023-03-23T10:01:06;98247.22;;;21.32;41.81
75447;BME280;64024;55.820;37.574;2023-03-23T10:03:38;98246.59;;;21.35;41.67
75447;BME280;64024;55.820;37.574;2023-03-23T10:06:10;98244.72;;;21.36;41.86
75447;BME280;64024;55.820;37.574;2023-03-23T10:08:41;98241.69;;;21.38;41.59
75447;BME280;64024;55.820;37.574;2023-03-23T10:14:06;98224.25;;;21.44;41.60
75447;BME280;64024;55.820;37.574;2023-03-23T10:16:39;98236.69;;;21.45;41.63
75447;BME280;64024;55.820;37.574;2023-03-23T10:19:29;98229.06;;;21.47;41.56
75447;BME280;64024;55.820;37.574;2023-03-23T10:22:04;98226.34;;;21.47;41.56
75447;BME280;64024;55.820;37.574;2023-03-23T10:24:36;98228.25;;;21.46;41.54
75447;BME280;64024;55.820;37.574;2023-03-23T10:27:33;98219.53;;;21.49;41.46
75447;BME280;64024;55.820;37.574;2023-03-23T10:30:14;98218.44;;;21.50;41.46
75447;BME280;64024;55.820;37.574;2023-03-23T10:32:50;98213.09;;;21.59;41.29
75447;BME280;64024;55.820;37.574;2023-03-23T10:35:21;98216.41;;;21.56;41.34
75447;BME280;64024;55.820;37.574;2023-03-23T10:37:53;98223.25;;;21.53;41.32
75447;BME280;64024;55.820;37.574;2023-03-23T10:40:23;98217.59;;;21.64;41.13
75447;BME280;64024;55.820;37.574;2023-03-23T10:42:49;98207.69;;;21.59;41.23
75447;BME280;64024;55.820;37.574;2023-03-23T10:45:23;98223.19;;;21.67;41.12
75447;BME280;64024;55.820;37.574;2023-03-23T10:48:11;98206.78;;;21.64;41.11
75447;BME280;64024;55.820;37.574;2023-03-23T10:50:38;98214.41;;;21.62;41.03
75447;BME280;64024;55.820;37.574;2023-03-23T10:53:29;98227.28;;;21.65;41.21
75447;BME280;64024;55.820;37.574;2023-03-23T10:55:57;98227.59;;;21.63;40.83
75447;BME280;64024;55.820;37.574;2023-03-23T10:58:26;98216.00;;;21.63;41.22
75447;BME280;64024;55.820;37.574;2023-03-23T11:00:55;98223.00;;;21.64;41.07
75447;BME280;64024;55.820;37.574;2023-03-23T11:08:20;98217.31;;;21.65;40.97
75447;BME280;64024;55.820;37.574;2023-03-23T11:10:57;98222.41;;;21.67;41.03
75447;BME280;64024;55.820;37.574;2023-03-23T11:13:30;98214.75;;;21.69;41.11
75447;BME280;64024;55.820;37.574;2023-03-23T11:15:57;98222.59;;;21.70;40.87
75447;BME280;64024;55.820;37.574;2023-03-23T11:18:34;98213.03;;;21.73;41.09
75447;BME280;64024;55.820;37.574;2023-03-23T11:21:02;98218.16;;;21.74;40.77
75447;BME280;64024;55.820;37.574;2023-03-23T11:23:32;98203.84;;;21.74;41.04
75447;BME280;64024;55.820;37.574;2023-03-23T11:28:46;98204.84;;;21.78;40.68
75447;BME280;64024;55.820;37.574;2023-03-23T11:31:18;98214.53;;;21.79;40.72
75447;BME280;64024;55.820;37.574;2023-03-23T11:34:26;98221.72;;;21.83;40.71
75447;BME280;64024;55.820;37.574;2023-03-23T11:42:38;98213.94;;;21.82;40.56
75447;BME280;64024;55.820;37.574;2023-03-23T11:45:20;98217.13;;;21.84;40.62
75447;BME280;64024;55.820;37.574;2023-03-23T11:48:09;98224.44;;;21.83;40.38
75447;BME280;64024;55.820;37.574;2023-03-23T11:51:05;98225.75;;;21.86;40.62
75447;BME280;64024;55.820;37.574;2023-03-23T11:56:32;98203.78;;;21.88;40.50
75447;BME280;64024;55.820;37.574;2023-03-23T11:58:59;98217.31;;;21.88;40.40
75447;BME280;64024;55.820;37.574;2023-03-23T12:07:28;98212.56;;;21.93;40.29
75447;BME280;64024;55.820;37.574;2023-03-23T12:10:27;98203.66;;;21.93;40.26
75447;BME280;64024;55.820;37.574;2023-03-23T12:13:19;98205.25;;;21.94;40.33
75447;BME280;64024;55.820;37.574;2023-03-23T12:16:11;98201.75;;;21.93;40.27
75447;BME280;64024;55.820;37.574;2023-03-23T12:19:01;98202.06;;;21.92;40.06
75447;BME280;64024;55.820;37.574;2023-03-23T12:30:35;98198.75;;;21.95;40.34
75447;BME280;64024;55.820;37.574;2023-03-23T12:32:54;98198.75;;;21.95;40.33
75447;BME280;64024;55.820;37.574;2023-03-23T12:46:50;98190.00;;;21.98;40.21
75447;BME280;64024;55.820;37.574;2023-03-23T12:49:41;98178.38;;;21.97;40.17
75447;BME280;64024;55.820;37.574;2023-03-23T12:52:16;98180.00;;;21.98;40.04
75447;BME280;64024;55.820;37.574;2023-03-23T12:55:03;98162.16;;;21.97;40.28
75447;BME280;64024;55.820;37.574;2023-03-23T12:57:43;98165.34;;;21.99;40.21
75447;BME280;64024;55.820;37.574;2023-03-23T13:05:47;98163.44;;;22.00;40.02
75447;BME280;64024;55.820;37.574;2023-03-23T13:08:26;98169.66;;;22.00;40.03
75447;BME280;64024;55.820;37.574;2023-03-23T13:10:58;98176.66;;;22.01;39.96
75447;BME280;64024;55.820;37.574;2023-03-23T13:13:52;98158.69;;;22.05;40.29
75447;BME280;64024;55.820;37.574;2023-03-23T13:17:32;98164.63;;;22.07;40.18
75447;BME280;64024;55.820;37.574;2023-03-23T13:19:34;98162.09;;;22.11;40.38
75447;BME280;64024;55.820;37.574;2023-03-23T13:24:34;98153.97;;;22.11;40.12
75447;BME280;64024;55.820;37.574;2023-03-23T13:27:01;98149.34;;;22.12;40.15
75447;BME280;64024;55.820;37.574;2023-03-23T13:29:27;98142.84;;;22.13;40.27
75447;BME280;64024;55.820;37.574;2023-03-23T13:32:17;98152.28;;;22.15;40.36
75447;BME280;64024;55.820;37.574;2023-03-23T13:34:43;98144.44;;;22.14;40.23
75447;BME280;64024;55.820;37.574;2023-03-23T13:37:21;98153.06;;;22.16;40.17
75447;BME280;64024;55.820;37.574;2023-03-23T13:39:54;98151.47;;;22.15;40.10
75447;BME280;64024;55.820;37.574;2023-03-23T13:42:28;98145.25;;;22.14;39.93
75447;BME280;64024;55.820;37.574;2023-03-23T13:48:16;98147.94;;;22.14;39.96
75447;BME280;64024;55.820;37.574;2023-03-23T13:53:31;98124.72;;;22.13;40.13
75447;BME280;64024;55.820;37.574;2023-03-23T13:56:17;98134.75;;;22.13;40.17
75447;BME280;64024;55.820;37.574;2023-03-23T13:58:52;98121.50;;;22.11;39.99
75447;BME280;64024;55.820;37.574;2023-03-23T14:01:36;98116.94;;;22.20;39.79
75447;BME280;64024;55.820;37.574;2023-03-23T14:04:06;98119.00;;;22.15;40.10
75447;BME280;64024;55.820;37.574;2023-03-23T14:06:36;98119.59;;;22.12;39.79
75447;BME280;64024;55.820;37.574;2023-03-23T14:09:16;98114.47;;;22.10;39.88
75447;BME280;64024;55.820;37.574;2023-03-23T14:12:15;98107.97;;;22.11;39.95
75447;BME280;64024;55.820;37.574;2023-03-23T14:14:48;98108.25;;;22.09;39.79
75447;BME280;64024;55.820;37.574;2023-03-23T14:17:22;98103.97;;;22.08;39.87
75447;BME280;64024;55.820;37.574;2023-03-23T14:19:51;98110.50;;;22.07;39.96
75447;BME280;64024;55.820;37.574;2023-03-23T14:22:26;98114.78;;;22.08;39.87
75447;BME280;64024;55.820;37.574;2023-03-23T14:24:59;98111.28;;;22.08;39.64
75447;BME280;64024;55.820;37.574;2023-03-23T14:27:26;98106.19;;;22.06;39.74
75447;BME280;64024;55.820;37.574;2023-03-23T14:30:02;98108.91;;;22.06;39.87